This is the latest recevied weather packets stored in our database for station/object AF1E. If no packets are shown the sender has not sent any weather packets the latest 10 day(s).
| Time | Temp. | Humidity | Pressure | Rain* | Wind** | Luminosity | Snow |
|---|---|---|---|---|---|---|---|
| 1777764917 | 15.56° C | 37% | 1010.7 hPa | 0 mm | - | - | - |
| 1777763116 | 16.11° C | 41% | 1010.2 hPa | 0 mm | - | - | - |
| 1777759516 | 16.11° C | 46% | 1009.6 hPa | 0 mm | - | - | - |
| 1777750556 | 17.78° C | 39% | 1010.1 hPa | 0 mm | - | - | - |
| 1777744516 | 15.56° C | 45% | 1011.1 hPa | 0 mm | - | - | - |
| 1777736116 | 12.78° C | 53% | 1012.4 hPa | 0 mm | - | - | - |
| 1777735516 | 12.78° C | 53% | 1012.4 hPa | 0 mm | - | - | - |
| 1777734316 | 12.78° C | 59% | 1012.5 hPa | 0 mm | - | - | - |
| 1777731356 | 12.78° C | 62% | 1012 hPa | 0 mm | - | - | - |
| 1777729516 | 12.22° C | 65% | 1012.2 hPa | 0 mm | - | - | - |
| 1777727716 | 12.22° C | 70% | 1011.8 hPa | 0 mm | - | - | - |
| 1777723516 | 12.22° C | 73% | 1011.1 hPa | 0 mm | - | - | - |
| 1777719916 | 11.67° C | 74% | 1011 hPa | 0 mm | - | - | - |
| 1777716338 | 11.67° C | 79% | 1010.7 hPa | 0 mm | - | - | - |
| 1777715117 | 12.22° C | 79% | 1010.9 hPa | 0 mm | - | - | - |
| 1777709737 | 12.22° C | 85% | 1010.9 hPa | 0 mm | - | - | - |
| 1777703717 | 12.22° C | 86% | 1010.3 hPa | 0 mm | - | - | - |
| 1777700737 | 12.22° C | 85% | 1010.6 hPa | 0 mm | - | - | - |
| 1777699517 | 12.22° C | 84% | 1010.8 hPa | 0 mm | - | - | - |
| 1777695917 | 12.22° C | 82% | 1010.8 hPa | 0 mm | - | - | - |
| 1777694117 | 12.22° C | 81% | 1010.9 hPa | 0 mm | - | - | - |
| 1777689917 | 13.33° C | 76% | 1011.5 hPa | 0 mm | - | - | - |
| 1777686917 | 14.44° C | 72% | 1011.1 hPa | 0 mm | - | - | - |
| 1777683917 | 15° C | 69% | 1010.8 hPa | 0 mm | - | - | - |
| 1777680937 | 16.11° C | 63% | 1009.8 hPa | 0 mm | - | - | - |
* Rain latest hour (hover to see other rain measurements)
** Current wind speed in m/s (hover to see current wind gust speed)